Bootsie B, — WDF9484 — position and weather

sailwx.info

Track history (hours):
 
Tides and Currents Weather Stations Pressure Air Temp Water Temp Dewpoint Dewpoint Depression Visibility Wind Speed Wind Dir Waves Ship Positions

Bootsie B,

Owner: Marquette Transp[ortation Co. LLC, Paducah, KY. More information available from US FCC via Universal Licensing System and Coast Guard Vessel Documentation Center.

Last reported at 2017-Jan-19 02:16 UTC. Time now 2017-Jan-24 21:26 UTC.
Position N 31°49' W 091°21'.

Type: Towing. MMSI: 367505630.

Date/timePositionNaut miles runAvg speedWind from/ knotsBaromVisibWave heightAir tempDewpointWater temp
2017-Jan-19 02:16N 31°49' W 091°21'17 8.1
2017-Jan-19 00:13N 31°59' W 091°06'6 8.5
2017-Jan-18 23:32N 32°05' W 091°04'3 2.7
2017-Jan-18 22:31N 32°07' W 091°03'8 8.4
2017-Jan-18 21:33N 32°15' W 090°59'7 6.7
2017-Jan-18 20:33N 32°21' W 090°56'7 7.3
2017-Jan-18 19:33N 32°26' W 091°02'8 7.5
2017-Jan-18 18:33N 32°33' W 091°06'7 7.3
2017-Jan-18 17:33N 32°40' W 091°08'  
Track history (hours):
 
Tides and Currents Weather Stations Pressure Air Temp Water Temp Dewpoint Dewpoint Depression Visibility Wind Speed Wind Dir Waves Ship Positions

Bootsie B,

Owner: Marquette Transp[ortation Co. LLC, Paducah, KY. More information available from US FCC via Universal Licensing System and Coast Guard Vessel Documentation Center.

Last reported at 2017-Jan-19 02:16 UTC. Time now 2017-Jan-24 21:26 UTC.
Position N 31°49' W 091°21'.

Type: Towing. MMSI: 367505630.

Date/timePositionNaut miles runAvg speedWind from/ knotsBaromVisibWave heightAir tempDewpointWater temp
2017-Jan-19 02:16N 31°49' W 091°21'17 8.1
2017-Jan-19 00:13N 31°59' W 091°06'6 8.5
2017-Jan-18 23:32N 32°05' W 091°04'3 2.7
2017-Jan-18 22:31N 32°07' W 091°03'8 8.4
2017-Jan-18 21:33N 32°15' W 090°59'7 6.7
2017-Jan-18 20:33N 32°21' W 090°56'7 7.3
2017-Jan-18 19:33N 32°26' W 091°02'8 7.5
2017-Jan-18 18:33N 32°33' W 091°06'7 7.3
2017-Jan-18 17:33N 32°40' W 091°08'  

Dump ship's entire track history